sensor_id;sensor_type;location;lat;lon;timestamp;temperature;humidity
28614;DHT22;15806;53.548;9.964;2023-04-25T00:00:27;10.30;99.90
28614;DHT22;15806;53.548;9.964;2023-04-25T00:02:08;10.30;99.90
28614;DHT22;15806;53.548;9.964;2023-04-25T00:03:48;10.30;99.90
28614;DHT22;15806;53.548;9.964;2023-04-25T00:05:29;10.30;99.90
28614;DHT22;15806;53.548;9.964;2023-04-25T00:07:09;10.30;99.90
28614;DHT22;15806;53.548;9.964;2023-04-25T00:08:50;10.20;99.90
28614;DHT22;15806;53.548;9.964;2023-04-25T00:10:31;10.30;99.90
28614;DHT22;15806;53.548;9.964;2023-04-25T00:12:11;10.30;99.90
28614;DHT22;15806;53.548;9.964;2023-04-25T00:13:52;10.30;99.90
28614;DHT22;15806;53.548;9.964;2023-04-25T00:15:32;10.30;99.90
28614;DHT22;15806;53.548;9.964;2023-04-25T00:17:13;10.20;99.90
28614;DHT22;15806;53.548;9.964;2023-04-25T00:18:53;10.20;99.90
28614;DHT22;15806;53.548;9.964;2023-04-25T00:20:35;10.20;99.90
28614;DHT22;15806;53.548;9.964;2023-04-25T00:22:16;10.20;99.90
28614;DHT22;15806;53.548;9.964;2023-04-25T00:23:56;10.20;99.90
28614;DHT22;15806;53.548;9.964;2023-04-25T00:25:37;10.20;99.90
28614;DHT22;15806;53.548;9.964;2023-04-25T00:27:17;10.10;99.90
28614;DHT22;15806;53.548;9.964;2023-04-25T00:28:58;10.10;99.90
28614;DHT22;15806;53.548;9.964;2023-04-25T00:30:39;10.00;99.90
28614;DHT22;15806;53.548;9.964;2023-04-25T00:32:20;9.90;99.90
28614;DHT22;15806;53.548;9.964;2023-04-25T00:34:01;9.80;99.90
28614;DHT22;15806;53.548;9.964;2023-04-25T00:35:42;9.80;99.90
28614;DHT22;15806;53.548;9.964;2023-04-25T00:37:22;9.80;99.90
28614;DHT22;15806;53.548;9.964;2023-04-25T00:39:03;9.70;99.90
28614;DHT22;15806;53.548;9.964;2023-04-25T00:40:43;9.60;99.90
28614;DHT22;15806;53.548;9.964;2023-04-25T00:42:25;9.50;99.90
28614;DHT22;15806;53.548;9.964;2023-04-25T00:44:05;9.30;99.90
28614;DHT22;15806;53.548;9.964;2023-04-25T00:45:47;9.20;99.90
28614;DHT22;15806;53.548;9.964;2023-04-25T00:47:28;9.20;99.90
28614;DHT22;15806;53.548;9.964;2023-04-25T00:49:09;9.10;99.90
28614;DHT22;15806;53.548;9.964;2023-04-25T00:50:52;9.10;99.90
28614;DHT22;15806;53.548;9.964;2023-04-25T00:52:33;9.00;99.90
28614;DHT22;15806;53.548;9.964;2023-04-25T00:54:14;9.00;99.90
28614;DHT22;15806;53.548;9.964;2023-04-25T00:55:55;9.00;99.90
28614;DHT22;15806;53.548;9.964;2023-04-25T00:57:36;9.00;99.90
28614;DHT22;15806;53.548;9.964;2023-04-25T00:59:19;8.90;99.90
28614;DHT22;15806;53.548;9.964;2023-04-25T01:00:59;8.90;99.90
28614;DHT22;15806;53.548;9.964;2023-04-25T01:02:41;8.80;99.90
28614;DHT22;15806;53.548;9.964;2023-04-25T01:04:21;8.80;99.90
28614;DHT22;15806;53.548;9.964;2023-04-25T01:06:02;8.70;99.90
28614;DHT22;15806;53.548;9.964;2023-04-25T01:07:43;8.70;99.90
28614;DHT22;15806;53.548;9.964;2023-04-25T01:09:26;8.60;99.90
28614;DHT22;15806;53.548;9.964;2023-04-25T01:11:07;8.50;99.90
28614;DHT22;15806;53.548;9.964;2023-04-25T01:12:48;8.50;99.90
28614;DHT22;15806;53.548;9.964;2023-04-25T01:14:29;8.50;99.90
28614;DHT22;15806;53.548;9.964;2023-04-25T01:16:09;8.40;99.90
28614;DHT22;15806;53.548;9.964;2023-04-25T01:17:50;8.40;99.90
28614;DHT22;15806;53.548;9.964;2023-04-25T01:19:30;8.30;99.90
28614;DHT22;15806;53.548;9.964;2023-04-25T01:21:12;8.20;99.90
28614;DHT22;15806;53.548;9.964;2023-04-25T01:22:53;8.10;99.90
28614;DHT22;15806;53.548;9.964;2023-04-25T01:24:34;8.10;99.90
28614;DHT22;15806;53.548;9.964;2023-04-25T01:26:15;8.00;99.90
28614;DHT22;15806;53.548;9.964;2023-04-25T01:27:57;8.00;99.90
28614;DHT22;15806;53.548;9.964;2023-04-25T01:29:37;8.00;99.90
28614;DHT22;15806;53.548;9.964;2023-04-25T01:31:18;8.00;99.90
28614;DHT22;15806;53.548;9.964;2023-04-25T01:33:00;7.90;99.90
28614;DHT22;15806;53.548;9.964;2023-04-25T01:34:41;7.80;99.90
28614;DHT22;15806;53.548;9.964;2023-04-25T01:36:21;7.80;99.90
28614;DHT22;15806;53.548;9.964;2023-04-25T01:38:02;7.80;99.90
28614;DHT22;15806;53.548;9.964;2023-04-25T01:39:43;7.80;99.90
28614;DHT22;15806;53.548;9.964;2023-04-25T01:41:23;7.80;99.90
28614;DHT22;15806;53.548;9.964;2023-04-25T01:43:04;7.70;99.90
28614;DHT22;15806;53.548;9.964;2023-04-25T01:44:44;7.70;99.90
28614;DHT22;15806;53.548;9.964;2023-04-25T01:46:25;7.70;99.90
28614;DHT22;15806;53.548;9.964;2023-04-25T01:48:05;7.70;99.90
28614;DHT22;15806;53.548;9.964;2023-04-25T01:49:46;7.60;99.90
28614;DHT22;15806;53.548;9.964;2023-04-25T01:51:27;7.50;99.90
28614;DHT22;15806;53.548;9.964;2023-04-25T01:53:09;7.50;99.90
28614;DHT22;15806;53.548;9.964;2023-04-25T01:54:51;7.50;99.90
28614;DHT22;15806;53.548;9.964;2023-04-25T01:56:33;7.50;99.90
28614;DHT22;15806;53.548;9.964;2023-04-25T01:58:16;7.50;99.90
28614;DHT22;15806;53.548;9.964;2023-04-25T02:00:02;7.50;99.90
28614;DHT22;15806;53.548;9.964;2023-04-25T02:01:43;7.40;99.90
28614;DHT22;15806;53.548;9.964;2023-04-25T02:03:23;7.50;99.90
28614;DHT22;15806;53.548;9.964;2023-04-25T02:05:04;7.50;99.90
28614;DHT22;15806;53.548;9.964;2023-04-25T02:06:45;7.40;99.90
28614;DHT22;15806;53.548;9.964;2023-04-25T02:08:25;7.40;99.90
28614;DHT22;15806;53.548;9.964;2023-04-25T02:10:06;7.40;99.90
28614;DHT22;15806;53.548;9.964;2023-04-25T02:11:47;7.40;99.90
28614;DHT22;15806;53.548;9.964;2023-04-25T02:13:27;7.40;99.90
28614;DHT22;15806;53.548;9.964;2023-04-25T02:15:08;7.40;99.90
28614;DHT22;15806;53.548;9.964;2023-04-25T02:16:49;7.40;99.90
28614;DHT22;15806;53.548;9.964;2023-04-25T02:18:30;7.30;99.90
28614;DHT22;15806;53.548;9.964;2023-04-25T02:20:11;7.30;99.90
28614;DHT22;15806;53.548;9.964;2023-04-25T02:21:51;7.30;99.90
28614;DHT22;15806;53.548;9.964;2023-04-25T02:23:32;7.30;99.90
28614;DHT22;15806;53.548;9.964;2023-04-25T02:25:12;7.30;99.90
28614;DHT22;15806;53.548;9.964;2023-04-25T02:26:53;7.20;99.90
28614;DHT22;15806;53.548;9.964;2023-04-25T02:28:34;7.20;99.90
28614;DHT22;15806;53.548;9.964;2023-04-25T02:30:14;7.10;99.90
28614;DHT22;15806;53.548;9.964;2023-04-25T02:31:55;7.10;99.90
28614;DHT22;15806;53.548;9.964;2023-04-25T02:33:36;7.10;99.90
28614;DHT22;15806;53.548;9.964;2023-04-25T02:35:16;7.10;99.90
28614;DHT22;15806;53.548;9.964;2023-04-25T02:36:57;7.10;99.90
28614;DHT22;15806;53.548;9.964;2023-04-25T02:38:37;7.10;99.90
28614;DHT22;15806;53.548;9.964;2023-04-25T02:40:18;7.10;99.90
28614;DHT22;15806;53.548;9.964;2023-04-25T02:41:58;7.00;99.90
28614;DHT22;15806;53.548;9.964;2023-04-25T02:43:39;7.00;99.90
28614;DHT22;15806;53.548;9.964;2023-04-25T02:45:19;7.00;99.90
28614;DHT22;15806;53.548;9.964;2023-04-25T02:47:00;7.00;99.90
28614;DHT22;15806;53.548;9.964;2023-04-25T02:48:40;7.00;99.90
28614;DHT22;15806;53.548;9.964;2023-04-25T02:50:21;6.90;99.90
28614;DHT22;15806;53.548;9.964;2023-04-25T02:52:02;6.90;99.90
28614;DHT22;15806;53.548;9.964;2023-04-25T02:53:42;6.90;99.90
28614;DHT22;15806;53.548;9.964;2023-04-25T02:55:23;6.90;99.90
28614;DHT22;15806;53.548;9.964;2023-04-25T02:57:03;6.80;99.90
28614;DHT22;15806;53.548;9.964;2023-04-25T02:58:44;6.80;99.90
28614;DHT22;15806;53.548;9.964;2023-04-25T03:00:24;6.80;99.90
28614;DHT22;15806;53.548;9.964;2023-04-25T03:02:05;6.80;99.90
28614;DHT22;15806;53.548;9.964;2023-04-25T03:03:45;6.80;99.90
28614;DHT22;15806;53.548;9.964;2023-04-25T03:05:26;6.80;99.90
28614;DHT22;15806;53.548;9.964;2023-04-25T03:07:06;6.80;99.90
28614;DHT22;15806;53.548;9.964;2023-04-25T03:08:47;6.80;99.90
28614;DHT22;15806;53.548;9.964;2023-04-25T03:10:28;6.70;99.90
28614;DHT22;15806;53.548;9.964;2023-04-25T03:12:08;6.70;99.90
28614;DHT22;15806;53.548;9.964;2023-04-25T03:13:49;6.70;99.90
28614;DHT22;15806;53.548;9.964;2023-04-25T03:15:29;6.70;99.90
28614;DHT22;15806;53.548;9.964;2023-04-25T03:17:10;6.60;99.90
28614;DHT22;15806;53.548;9.964;2023-04-25T03:18:50;6.50;99.90
28614;DHT22;15806;53.548;9.964;2023-04-25T03:20:31;6.50;99.90
28614;DHT22;15806;53.548;9.964;2023-04-25T03:22:11;6.50;99.90
28614;DHT22;15806;53.548;9.964;2023-04-25T03:23:52;6.50;99.90
28614;DHT22;15806;53.548;9.964;2023-04-25T03:25:32;6.50;99.90
28614;DHT22;15806;53.548;9.964;2023-04-25T03:27:13;6.40;99.90
28614;DHT22;15806;53.548;9.964;2023-04-25T03:28:54;6.40;99.90
28614;DHT22;15806;53.548;9.964;2023-04-25T03:30:34;6.30;99.90
28614;DHT22;15806;53.548;9.964;2023-04-25T03:32:15;6.30;99.90
28614;DHT22;15806;53.548;9.964;2023-04-25T03:33:55;6.30;99.90
28614;DHT22;15806;53.548;9.964;2023-04-25T03:35:36;6.30;99.90
28614;DHT22;15806;53.548;9.964;2023-04-25T03:37:16;6.20;99.90
28614;DHT22;15806;53.548;9.964;2023-04-25T03:38:57;6.20;99.90
28614;DHT22;15806;53.548;9.964;2023-04-25T03:40:37;6.20;99.90
28614;DHT22;15806;53.548;9.964;2023-04-25T03:42:18;6.20;1.00
28614;DHT22;15806;53.548;9.964;2023-04-25T03:43:58;6.20;1.00
28614;DHT22;15806;53.548;9.964;2023-04-25T03:45:39;6.20;1.00
28614;DHT22;15806;53.548;9.964;2023-04-25T03:47:19;6.20;1.00
28614;DHT22;15806;53.548;9.964;2023-04-25T03:49:00;6.20;99.90
28614;DHT22;15806;53.548;9.964;2023-04-25T03:50:40;6.20;99.90
28614;DHT22;15806;53.548;9.964;2023-04-25T03:52:21;6.20;1.00
28614;DHT22;15806;53.548;9.964;2023-04-25T03:54:01;6.20;1.00
28614;DHT22;15806;53.548;9.964;2023-04-25T03:55:42;6.20;99.90
28614;DHT22;15806;53.548;9.964;2023-04-25T03:57:22;6.30;1.00
28614;DHT22;15806;53.548;9.964;2023-04-25T03:59:03;6.30;99.90
28614;DHT22;15806;53.548;9.964;2023-04-25T04:00:44;6.30;99.90
28614;DHT22;15806;53.548;9.964;2023-04-25T04:02:24;6.30;99.90
28614;DHT22;15806;53.548;9.964;2023-04-25T04:04:05;6.20;1.00
28614;DHT22;15806;53.548;9.964;2023-04-25T04:05:45;6.20;1.00
28614;DHT22;15806;53.548;9.964;2023-04-25T04:07:26;6.20;99.90
28614;DHT22;15806;53.548;9.964;2023-04-25T04:09:06;6.20;99.90
28614;DHT22;15806;53.548;9.964;2023-04-25T04:10:47;6.20;99.90
28614;DHT22;15806;53.548;9.964;2023-04-25T04:12:27;6.20;99.90
28614;DHT22;15806;53.548;9.964;2023-04-25T04:14:08;6.10;99.90
28614;DHT22;15806;53.548;9.964;2023-04-25T04:15:48;6.10;99.90
28614;DHT22;15806;53.548;9.964;2023-04-25T04:17:29;6.10;99.90
28614;DHT22;15806;53.548;9.964;2023-04-25T04:19:10;6.10;1.00
28614;DHT22;15806;53.548;9.964;2023-04-25T04:20:50;6.10;1.00
28614;DHT22;15806;53.548;9.964;2023-04-25T04:22:31;6.00;1.00
28614;DHT22;15806;53.548;9.964;2023-04-25T04:24:12;6.10;99.90
28614;DHT22;15806;53.548;9.964;2023-04-25T04:25:53;6.10;99.90
28614;DHT22;15806;53.548;9.964;2023-04-25T04:27:33;6.10;99.90
28614;DHT22;15806;53.548;9.964;2023-04-25T04:29:14;6.10;99.90
28614;DHT22;15806;53.548;9.964;2023-04-25T04:30:54;6.10;1.00
28614;DHT22;15806;53.548;9.964;2023-04-25T04:32:35;6.10;16.80
28614;DHT22;15806;53.548;9.964;2023-04-25T04:34:16;6.00;99.90
28614;DHT22;15806;53.548;9.964;2023-04-25T04:35:56;6.10;1.00
28614;DHT22;15806;53.548;9.964;2023-04-25T04:37:37;6.00;99.90
28614;DHT22;15806;53.548;9.964;2023-04-25T04:39:19;6.00;99.90
28614;DHT22;15806;53.548;9.964;2023-04-25T04:40:59;6.00;1.00
28614;DHT22;15806;53.548;9.964;2023-04-25T04:42:40;5.90;99.90
28614;DHT22;15806;53.548;9.964;2023-04-25T04:44:20;6.00;99.90
28614;DHT22;15806;53.548;9.964;2023-04-25T04:46:01;6.00;80.90
28614;DHT22;15806;53.548;9.964;2023-04-25T04:47:41;6.10;99.90
28614;DHT22;15806;53.548;9.964;2023-04-25T04:49:22;6.10;1.00
28614;DHT22;15806;53.548;9.964;2023-04-25T04:51:02;6.10;1.00
28614;DHT22;15806;53.548;9.964;2023-04-25T04:52:43;6.20;1.00
28614;DHT22;15806;53.548;9.964;2023-04-25T04:54:23;6.20;99.90
28614;DHT22;15806;53.548;9.964;2023-04-25T04:56:04;6.20;99.90
28614;DHT22;15806;53.548;9.964;2023-04-25T04:57:45;6.20;99.90
28614;DHT22;15806;53.548;9.964;2023-04-25T04:59:25;6.20;99.90
28614;DHT22;15806;53.548;9.964;2023-04-25T05:01:06;6.20;99.90
28614;DHT22;15806;53.548;9.964;2023-04-25T05:02:46;6.20;1.00
28614;DHT22;15806;53.548;9.964;2023-04-25T05:04:27;6.20;26.20
28614;DHT22;15806;53.548;9.964;2023-04-25T05:06:07;6.20;99.90
28614;DHT22;15806;53.548;9.964;2023-04-25T05:07:48;6.20;1.00
28614;DHT22;15806;53.548;9.964;2023-04-25T05:09:28;6.30;28.40
28614;DHT22;15806;53.548;9.964;2023-04-25T05:11:09;6.30;9.40
28614;DHT22;15806;53.548;9.964;2023-04-25T05:12:49;6.20;1.00
28614;DHT22;15806;53.548;9.964;2023-04-25T05:14:30;6.30;1.00
28614;DHT22;15806;53.548;9.964;2023-04-25T05:16:11;6.30;99.90
28614;DHT22;15806;53.548;9.964;2023-04-25T05:17:51;6.20;1.00
28614;DHT22;15806;53.548;9.964;2023-04-25T05:19:32;6.20;99.90
28614;DHT22;15806;53.548;9.964;2023-04-25T05:21:13;6.20;1.00
28614;DHT22;15806;53.548;9.964;2023-04-25T05:22:53;6.20;38.20
28614;DHT22;15806;53.548;9.964;2023-04-25T05:24:34;6.20;99.90
28614;DHT22;15806;53.548;9.964;2023-04-25T05:26:14;6.20;1.00
28614;DHT22;15806;53.548;9.964;2023-04-25T05:27:55;6.20;99.90
28614;DHT22;15806;53.548;9.964;2023-04-25T05:29:35;6.20;99.90
28614;DHT22;15806;53.548;9.964;2023-04-25T05:31:16;6.20;99.90
28614;DHT22;15806;53.548;9.964;2023-04-25T05:32:56;6.20;1.00
28614;DHT22;15806;53.548;9.964;2023-04-25T05:34:37;6.20;99.90
28614;DHT22;15806;53.548;9.964;2023-04-25T05:36:20;6.30;99.90
28614;DHT22;15806;53.548;9.964;2023-04-25T05:38:01;6.20;99.90
28614;DHT22;15806;53.548;9.964;2023-04-25T05:39:41;6.20;99.90
28614;DHT22;15806;53.548;9.964;2023-04-25T05:41:22;6.30;99.90
28614;DHT22;15806;53.548;9.964;2023-04-25T05:43:02;6.30;99.90
28614;DHT22;15806;53.548;9.964;2023-04-25T05:44:43;6.30;99.90
28614;DHT22;15806;53.548;9.964;2023-04-25T05:46:23;6.30;99.90
28614;DHT22;15806;53.548;9.964;2023-04-25T05:48:04;6.30;99.90
28614;DHT22;15806;53.548;9.964;2023-04-25T05:49:44;6.30;1.00
28614;DHT22;15806;53.548;9.964;2023-04-25T05:51:25;6.30;1.00
28614;DHT22;15806;53.548;9.964;2023-04-25T05:53:05;6.30;1.00
28614;DHT22;15806;53.548;9.964;2023-04-25T05:54:46;6.30;99.90
28614;DHT22;15806;53.548;9.964;2023-04-25T05:56:26;6.30;99.90
28614;DHT22;15806;53.548;9.964;2023-04-25T05:58:07;6.30;99.90
28614;DHT22;15806;53.548;9.964;2023-04-25T05:59:47;6.40;99.90
28614;DHT22;15806;53.548;9.964;2023-04-25T06:01:28;6.40;99.90
28614;DHT22;15806;53.548;9.964;2023-04-25T06:03:08;6.50;99.90
28614;DHT22;15806;53.548;9.964;2023-04-25T06:04:50;6.40;99.90
28614;DHT22;15806;53.548;9.964;2023-04-25T06:06:30;6.50;99.90
28614;DHT22;15806;53.548;9.964;2023-04-25T06:08:11;6.50;99.90
28614;DHT22;15806;53.548;9.964;2023-04-25T06:09:51;6.50;99.90
28614;DHT22;15806;53.548;9.964;2023-04-25T06:11:32;6.50;1.00
28614;DHT22;15806;53.548;9.964;2023-04-25T06:13:12;6.60;99.90
28614;DHT22;15806;53.548;9.964;2023-04-25T06:14:53;6.60;99.90
28614;DHT22;15806;53.548;9.964;2023-04-25T06:16:33;6.50;1.00
28614;DHT22;15806;53.548;9.964;2023-04-25T06:18:14;6.60;1.00
28614;DHT22;15806;53.548;9.964;2023-04-25T06:19:54;6.60;1.00
28614;DHT22;15806;53.548;9.964;2023-04-25T06:21:35;6.50;99.90
28614;DHT22;15806;53.548;9.964;2023-04-25T06:23:15;6.40;1.00
28614;DHT22;15806;53.548;9.964;2023-04-25T06:24:56;6.40;1.00
28614;DHT22;15806;53.548;9.964;2023-04-25T06:26:36;6.40;1.00
28614;DHT22;15806;53.548;9.964;2023-04-25T06:28:17;6.50;1.00
28614;DHT22;15806;53.548;9.964;2023-04-25T06:29:57;6.50;99.90
28614;DHT22;15806;53.548;9.964;2023-04-25T06:31:38;6.50;99.90
28614;DHT22;15806;53.548;9.964;2023-04-25T06:33:20;6.30;99.90
28614;DHT22;15806;53.548;9.964;2023-04-25T06:35:01;6.30;99.90
28614;DHT22;15806;53.548;9.964;2023-04-25T06:36:41;6.40;99.90
28614;DHT22;15806;53.548;9.964;2023-04-25T06:38:22;6.40;99.90
28614;DHT22;15806;53.548;9.964;2023-04-25T06:40:03;6.50;99.90
28614;DHT22;15806;53.548;9.964;2023-04-25T06:41:43;6.60;99.90
28614;DHT22;15806;53.548;9.964;2023-04-25T06:43:24;6.70;99.90
28614;DHT22;15806;53.548;9.964;2023-04-25T06:45:07;6.70;99.90
28614;DHT22;15806;53.548;9.964;2023-04-25T06:46:48;6.70;99.90
28614;DHT22;15806;53.548;9.964;2023-04-25T06:48:29;6.70;99.90
28614;DHT22;15806;53.548;9.964;2023-04-25T06:50:09;6.70;99.90
28614;DHT22;15806;53.548;9.964;2023-04-25T06:51:50;6.80;99.90
28614;DHT22;15806;53.548;9.964;2023-04-25T06:53:31;6.90;99.90
28614;DHT22;15806;53.548;9.964;2023-04-25T06:55:11;6.90;1.00
28614;DHT22;15806;53.548;9.964;2023-04-25T06:56:52;7.10;1.00
28614;DHT22;15806;53.548;9.964;2023-04-25T06:58:33;7.10;1.00
28614;DHT22;15806;53.548;9.964;2023-04-25T07:00:14;6.90;99.90
28614;DHT22;15806;53.548;9.964;2023-04-25T07:01:55;7.20;1.00
28614;DHT22;15806;53.548;9.964;2023-04-25T07:03:36;7.20;99.90
28614;DHT22;15806;53.548;9.964;2023-04-25T07:05:16;7.20;1.00
28614;DHT22;15806;53.548;9.964;2023-04-25T07:06:57;7.10;99.90
28614;DHT22;15806;53.548;9.964;2023-04-25T07:08:38;7.20;99.90
28614;DHT22;15806;53.548;9.964;2023-04-25T07:10:18;7.20;99.90
28614;DHT22;15806;53.548;9.964;2023-04-25T07:12:00;7.40;99.90
28614;DHT22;15806;53.548;9.964;2023-04-25T07:13:40;7.50;1.00
28614;DHT22;15806;53.548;9.964;2023-04-25T07:15:21;7.50;99.90
28614;DHT22;15806;53.548;9.964;2023-04-25T07:17:01;7.40;3.80
28614;DHT22;15806;53.548;9.964;2023-04-25T07:18:42;7.60;1.00
28614;DHT22;15806;53.548;9.964;2023-04-25T07:20:23;7.60;99.90
28614;DHT22;15806;53.548;9.964;2023-04-25T07:22:04;7.40;1.00
28614;DHT22;15806;53.548;9.964;2023-04-25T07:23:44;7.30;99.90
28614;DHT22;15806;53.548;9.964;2023-04-25T07:25:25;7.40;1.00
28614;DHT22;15806;53.548;9.964;2023-04-25T07:27:06;7.50;1.00
28614;DHT22;15806;53.548;9.964;2023-04-25T07:28:49;7.50;99.90
28614;DHT22;15806;53.548;9.964;2023-04-25T07:30:30;7.50;1.00
28614;DHT22;15806;53.548;9.964;2023-04-25T07:32:14;7.50;99.90
28614;DHT22;15806;53.548;9.964;2023-04-25T07:33:58;7.50;63.20
28614;DHT22;15806;53.548;9.964;2023-04-25T07:35:38;7.50;1.00
28614;DHT22;15806;53.548;9.964;2023-04-25T07:37:19;7.50;99.90
28614;DHT22;15806;53.548;9.964;2023-04-25T07:39:00;7.50;99.90
28614;DHT22;15806;53.548;9.964;2023-04-25T07:40:41;7.60;1.00
28614;DHT22;15806;53.548;9.964;2023-04-25T07:42:21;7.60;99.90
28614;DHT22;15806;53.548;9.964;2023-04-25T07:44:02;7.50;1.00
28614;DHT22;15806;53.548;9.964;2023-04-25T07:45:49;7.60;1.00
28614;DHT22;15806;53.548;9.964;2023-04-25T07:47:36;7.70;99.90
28614;DHT22;15806;53.548;9.964;2023-04-25T07:50:02;7.70;99.90
28614;DHT22;15806;53.548;9.964;2023-04-25T07:55:44;7.90;1.00
28614;DHT22;15806;53.548;9.964;2023-04-25T07:57:34;8.10;99.90
28614;DHT22;15806;53.548;9.964;2023-04-25T07:59:23;8.30;99.90
28614;DHT22;15806;53.548;9.964;2023-04-25T08:04:23;8.50;1.00
28614;DHT22;15806;53.548;9.964;2023-04-25T08:05:52;8.50;99.90
28614;DHT22;15806;53.548;9.964;2023-04-25T08:09:32;8.50;99.90
28614;DHT22;15806;53.548;9.964;2023-04-25T08:11:12;8.50;99.90
28614;DHT22;15806;53.548;9.964;2023-04-25T08:15:16;8.70;1.00
28614;DHT22;15806;53.548;9.964;2023-04-25T08:17:02;9.10;1.00
28614;DHT22;15806;53.548;9.964;2023-04-25T08:18:42;9.00;99.90
28614;DHT22;15806;53.548;9.964;2023-04-25T08:20:23;9.00;99.90
28614;DHT22;15806;53.548;9.964;2023-04-25T08:22:07;8.80;99.90
28614;DHT22;15806;53.548;9.964;2023-04-25T08:23:47;8.70;99.90
28614;DHT22;15806;53.548;9.964;2023-04-25T08:27:30;8.60;99.90
28614;DHT22;15806;53.548;9.964;2023-04-25T08:31:04;8.70;99.90
28614;DHT22;15806;53.548;9.964;2023-04-25T08:32:44;8.60;99.90
28614;DHT22;15806;53.548;9.964;2023-04-25T08:34:25;8.50;99.90
28614;DHT22;15806;53.548;9.964;2023-04-25T08:36:06;8.70;99.90
28614;DHT22;15806;53.548;9.964;2023-04-25T08:37:46;8.60;99.90
28614;DHT22;15806;53.548;9.964;2023-04-25T08:39:27;8.50;1.00
28614;DHT22;15806;53.548;9.964;2023-04-25T08:41:07;8.30;1.00
28614;DHT22;15806;53.548;9.964;2023-04-25T08:42:49;8.50;97.50
28614;DHT22;15806;53.548;9.964;2023-04-25T08:44:30;8.60;6.70
28614;DHT22;15806;53.548;9.964;2023-04-25T08:46:12;8.80;74.70
28614;DHT22;15806;53.548;9.964;2023-04-25T08:47:54;8.80;1.00
28614;DHT22;15806;53.548;9.964;2023-04-25T08:49:35;8.70;1.00
28614;DHT22;15806;53.548;9.964;2023-04-25T08:51:22;8.50;1.00
28614;DHT22;15806;53.548;9.964;2023-04-25T08:53:04;8.40;1.00
28614;DHT22;15806;53.548;9.964;2023-04-25T08:54:48;8.50;39.90
28614;DHT22;15806;53.548;9.964;2023-04-25T08:56:29;8.40;42.50
28614;DHT22;15806;53.548;9.964;2023-04-25T08:58:11;8.30;99.90
28614;DHT22;15806;53.548;9.964;2023-04-25T08:59:52;8.30;99.90
28614;DHT22;15806;53.548;9.964;2023-04-25T09:01:34;8.40;99.90
28614;DHT22;15806;53.548;9.964;2023-04-25T09:03:14;8.50;99.90
28614;DHT22;15806;53.548;9.964;2023-04-25T09:04:55;8.50;1.00
28614;DHT22;15806;53.548;9.964;2023-04-25T09:06:36;8.30;1.00
28614;DHT22;15806;53.548;9.964;2023-04-25T09:08:16;8.10;99.90
28614;DHT22;15806;53.548;9.964;2023-04-25T09:09:57;8.00;99.90
28614;DHT22;15806;53.548;9.964;2023-04-25T09:11:38;8.00;99.90
28614;DHT22;15806;53.548;9.964;2023-04-25T09:13:25;7.80;99.90
28614;DHT22;15806;53.548;9.964;2023-04-25T09:15:10;7.60;99.90
28614;DHT22;15806;53.548;9.964;2023-04-25T09:17:01;7.60;99.90
28614;DHT22;15806;53.548;9.964;2023-04-25T09:18:43;7.60;99.90
28614;DHT22;15806;53.548;9.964;2023-04-25T09:20:24;7.50;99.90
28614;DHT22;15806;53.548;9.964;2023-04-25T09:22:06;7.60;99.90
28614;DHT22;15806;53.548;9.964;2023-04-25T09:23:48;7.80;1.00
28614;DHT22;15806;53.548;9.964;2023-04-25T09:25:36;8.00;99.90
28614;DHT22;15806;53.548;9.964;2023-04-25T09:27:19;8.20;99.90
28614;DHT22;15806;53.548;9.964;2023-04-25T09:29:07;8.40;53.20
28614;DHT22;15806;53.548;9.964;2023-04-25T09:30:47;8.50;1.00
28614;DHT22;15806;53.548;9.964;2023-04-25T09:32:28;8.50;1.00
28614;DHT22;15806;53.548;9.964;2023-04-25T09:34:08;8.40;1.00
28614;DHT22;15806;53.548;9.964;2023-04-25T09:35:49;8.50;1.00
28614;DHT22;15806;53.548;9.964;2023-04-25T09:37:30;8.50;1.00
28614;DHT22;15806;53.548;9.964;2023-04-25T09:39:12;8.60;1.00
28614;DHT22;15806;53.548;9.964;2023-04-25T09:40:53;8.80;1.00
28614;DHT22;15806;53.548;9.964;2023-04-25T09:42:33;8.80;1.00
28614;DHT22;15806;53.548;9.964;2023-04-25T09:44:14;8.30;1.00
28614;DHT22;15806;53.548;9.964;2023-04-25T09:45:55;8.00;1.00
28614;DHT22;15806;53.548;9.964;2023-04-25T09:47:40;8.00;99.90
28614;DHT22;15806;53.548;9.964;2023-04-25T09:51:59;8.30;99.90
28614;DHT22;15806;53.548;9.964;2023-04-25T09:55:59;8.40;1.00
28614;DHT22;15806;53.548;9.964;2023-04-25T09:58:03;8.30;1.00
28614;DHT22;15806;53.548;9.964;2023-04-25T10:04:55;8.10;1.00
28614;DHT22;15806;53.548;9.964;2023-04-25T10:06:23;8.40;1.00
28614;DHT22;15806;53.548;9.964;2023-04-25T10:08:20;8.80;1.00
28614;DHT22;15806;53.548;9.964;2023-04-25T10:10:19;8.90;99.90
28614;DHT22;15806;53.548;9.964;2023-04-25T10:11:59;9.00;99.90
28614;DHT22;15806;53.548;9.964;2023-04-25T10:13:46;9.00;99.90
28614;DHT22;15806;53.548;9.964;2023-04-25T10:15:42;9.10;99.90
28614;DHT22;15806;53.548;9.964;2023-04-25T10:17:50;9.20;99.90
28614;DHT22;15806;53.548;9.964;2023-04-25T10:20:09;9.40;65.80
28614;DHT22;15806;53.548;9.964;2023-04-25T10:24:19;8.90;99.90
28614;DHT22;15806;53.548;9.964;2023-04-25T10:26:00;8.80;99.90
28614;DHT22;15806;53.548;9.964;2023-04-25T10:30:15;8.90;99.90
28614;DHT22;15806;53.548;9.964;2023-04-25T10:34:00;8.90;99.90
28614;DHT22;15806;53.548;9.964;2023-04-25T10:35:40;9.30;99.90
28614;DHT22;15806;53.548;9.964;2023-04-25T10:37:27;9.70;99.90
28614;DHT22;15806;53.548;9.964;2023-04-25T10:39:08;9.80;99.90
28614;DHT22;15806;53.548;9.964;2023-04-25T10:41:08;9.80;99.90
28614;DHT22;15806;53.548;9.964;2023-04-25T10:42:52;9.80;99.90
28614;DHT22;15806;53.548;9.964;2023-04-25T10:45:16;9.90;99.90
28614;DHT22;15806;53.548;9.964;2023-04-25T10:46:40;9.90;99.90
28614;DHT22;15806;53.548;9.964;2023-04-25T10:48:28;10.10;99.90
28614;DHT22;15806;53.548;9.964;2023-04-25T10:50:09;10.20;99.90
28614;DHT22;15806;53.548;9.964;2023-04-25T10:51:49;9.90;99.90
28614;DHT22;15806;53.548;9.964;2023-04-25T10:53:33;9.80;99.90
28614;DHT22;15806;53.548;9.964;2023-04-25T10:55:13;10.00;99.90
28614;DHT22;15806;53.548;9.964;2023-04-25T10:56:54;9.70;99.90
28614;DHT22;15806;53.548;9.964;2023-04-25T10:58:34;9.70;99.90
28614;DHT22;15806;53.548;9.964;2023-04-25T11:00:20;9.60;99.90
28614;DHT22;15806;53.548;9.964;2023-04-25T11:02:11;9.90;99.90
28614;DHT22;15806;53.548;9.964;2023-04-25T11:03:57;10.10;99.90
28614;DHT22;15806;53.548;9.964;2023-04-25T11:05:40;10.20;99.90
28614;DHT22;15806;53.548;9.964;2023-04-25T11:07:54;10.10;99.90
28614;DHT22;15806;53.548;9.964;2023-04-25T11:09:37;10.10;99.90
28614;DHT22;15806;53.548;9.964;2023-04-25T11:11:18;9.80;99.90
28614;DHT22;15806;53.548;9.964;2023-04-25T11:12:59;9.50;99.90
28614;DHT22;15806;53.548;9.964;2023-04-25T11:14:40;9.60;99.90
28614;DHT22;15806;53.548;9.964;2023-04-25T11:16:24;9.80;99.90
28614;DHT22;15806;53.548;9.964;2023-04-25T11:18:04;10.40;99.90
28614;DHT22;15806;53.548;9.964;2023-04-25T11:19:48;12.30;99.90
28614;DHT22;15806;53.548;9.964;2023-04-25T11:21:29;14.40;1.00
28614;DHT22;15806;53.548;9.964;2023-04-25T11:23:10;15.50;1.00
28614;DHT22;15806;53.548;9.964;2023-04-25T11:24:51;16.00;1.00
28614;DHT22;15806;53.548;9.964;2023-04-25T11:26:31;15.60;99.90